createdAt,value
2022-12-06T00:01:15.687Z,17.90
2022-12-06T00:03:43.704Z,14.50
2022-12-06T00:06:12.761Z,16.88
2022-12-06T00:08:40.498Z,15.18
2022-12-06T00:11:07.603Z,17.05
2022-12-06T00:13:35.051Z,17.75
2022-12-06T00:16:06.674Z,15.27
2022-12-06T00:18:34.636Z,24.48
2022-12-06T00:21:06.470Z,18.67
2022-12-06T00:23:35.158Z,19.25
2022-12-06T00:26:02.302Z,17.60
2022-12-06T00:28:29.382Z,19.50
2022-12-06T00:30:59.910Z,22.25
2022-12-06T00:33:27.331Z,31.98
2022-12-06T00:35:56.210Z,33.38
2022-12-06T00:38:23.315Z,25.57
2022-12-06T00:40:50.438Z,22.00
2022-12-06T00:43:17.499Z,22.67
2022-12-06T00:45:45.043Z,19.97
2022-12-06T00:48:12.106Z,16.42
2022-12-06T00:50:39.245Z,18.38
2022-12-06T00:53:06.377Z,15.60
2022-12-06T00:55:33.482Z,16.88
2022-12-06T00:58:00.553Z,21.42
2022-12-06T01:00:27.650Z,19.00
2022-12-06T01:02:54.732Z,21.83
2022-12-06T01:05:21.913Z,25.92
2022-12-06T01:07:49.003Z,23.80
2022-12-06T01:10:16.055Z,21.13
2022-12-06T01:12:43.159Z,18.88
2022-12-06T01:15:10.495Z,17.60
2022-12-06T01:17:37.722Z,22.17
2022-12-06T01:20:05.412Z,24.45
2022-12-06T01:22:32.494Z,19.38
2022-12-06T01:24:59.601Z,24.08
2022-12-06T01:27:27.039Z,23.83
2022-12-06T01:29:55.315Z,21.95
2022-12-06T01:32:22.325Z,18.95
2022-12-06T01:34:52.218Z,17.38
2022-12-06T01:37:19.611Z,15.70
2022-12-06T01:39:46.770Z,17.40
2022-12-06T01:42:14.295Z,18.67
2022-12-06T01:44:41.445Z,19.85
2022-12-06T01:47:12.896Z,17.30
2022-12-06T01:49:41.984Z,19.48
2022-12-06T01:52:11.937Z,16.98
2022-12-06T01:54:40.357Z,15.15
2022-12-06T01:57:09.907Z,16.35
2022-12-06T01:59:37.465Z,20.45
2022-12-06T02:02:04.661Z,24.27
2022-12-06T02:04:32.146Z,22.52
2022-12-06T02:07:00.685Z,22.48
2022-12-06T02:09:28.984Z,20.50
2022-12-06T02:11:56.093Z,17.63
2022-12-06T02:14:25.081Z,19.67
2022-12-06T02:17:12.096Z,15.60
2022-12-06T02:19:46.520Z,19.13
2022-12-06T02:22:29.128Z,19.50
2022-12-06T02:25:02.783Z,16.05
2022-12-06T02:27:39.086Z,15.77
2022-12-06T02:30:08.895Z,15.38
2022-12-06T02:32:37.898Z,18.10
2022-12-06T02:35:24.739Z,15.32
2022-12-06T02:37:56.162Z,15.30
2022-12-06T02:40:26.226Z,17.65
2022-12-06T02:42:59.414Z,15.80
2022-12-06T02:45:28.578Z,14.73
2022-12-06T02:47:57.127Z,16.33
2022-12-06T02:50:27.636Z,15.07
2022-12-06T02:52:55.173Z,18.42
2022-12-06T02:55:24.329Z,16.07
2022-12-06T02:57:52.262Z,16.30
2022-12-06T03:00:29.573Z,15.52
2022-12-06T03:03:04.289Z,16.97
2022-12-06T03:05:36.917Z,15.52
2022-12-06T03:08:06.631Z,17.40
2022-12-06T03:10:53.692Z,17.67
2022-12-06T03:13:26.835Z,16.42
2022-12-06T03:15:59.668Z,20.52
2022-12-06T03:18:33.121Z,16.25
2022-12-06T03:21:03.701Z,15.10
2022-12-06T03:23:38.934Z,17.52
2022-12-06T03:26:06.182Z,17.08
2022-12-06T03:28:36.391Z,16.38
2022-12-06T03:31:04.956Z,15.68
2022-12-06T03:33:34.600Z,15.77
2022-12-06T03:36:01.916Z,15.25
2022-12-06T03:38:35.027Z,16.25
2022-12-06T03:41:03.828Z,15.88
2022-12-06T03:43:30.581Z,15.90
2022-12-06T03:46:05.516Z,15.27
2022-12-06T03:48:36.780Z,17.00
2022-12-06T03:51:06.388Z,16.92
2022-12-06T03:53:34.018Z,15.40
2022-12-06T03:56:01.156Z,15.57
2022-12-06T03:58:28.311Z,15.27
2022-12-06T04:00:55.381Z,14.73
2022-12-06T04:03:22.556Z,14.80
2022-12-06T04:05:49.667Z,15.20
2022-12-06T04:08:16.840Z,14.20
2022-12-06T04:10:43.916Z,15.05
2022-12-06T04:13:15.283Z,12.60
2022-12-06T04:15:45.270Z,14.88
2022-12-06T04:18:14.488Z,14.50
2022-12-06T04:21:01.552Z,12.15
2022-12-06T04:23:30.623Z,13.90
2022-12-06T04:25:57.700Z,15.70
2022-12-06T04:28:44.675Z,19.55
2022-12-06T04:31:31.850Z,15.80
2022-12-06T04:34:18.902Z,14.93
2022-12-06T04:37:06.493Z,14.18
2022-12-06T04:39:33.638Z,16.77
2022-12-06T04:42:20.743Z,16.13
2022-12-06T04:44:47.971Z,18.95
2022-12-06T04:47:15.058Z,16.30
2022-12-06T04:49:42.137Z,14.25
2022-12-06T04:52:09.507Z,13.50
2022-12-06T04:54:36.921Z,12.70
2022-12-06T04:57:04.474Z,12.30
2022-12-06T04:59:31.472Z,12.25
2022-12-06T05:01:58.603Z,15.27
2022-12-06T05:04:25.800Z,16.25
2022-12-06T05:06:52.931Z,18.83
2022-12-06T05:09:20.219Z,19.30
2022-12-06T05:11:47.303Z,18.42
2022-12-06T05:14:14.374Z,14.27
2022-12-06T05:16:41.557Z,15.48
2022-12-06T05:19:08.775Z,14.32
2022-12-06T05:21:35.811Z,15.17
2022-12-06T05:24:02.937Z,15.70
2022-12-06T05:26:29.597Z,16.90
2022-12-06T05:28:57.166Z,16.35
2022-12-06T05:31:24.924Z,17.50
2022-12-06T05:33:52.196Z,16.20
2022-12-06T05:36:20.839Z,14.63
2022-12-06T05:38:51.642Z,14.85
2022-12-06T05:41:19.767Z,15.13
2022-12-06T05:43:47.109Z,15.33
2022-12-06T05:46:14.468Z,17.38
2022-12-06T05:48:41.571Z,14.45
2022-12-06T05:51:08.796Z,15.27
2022-12-06T05:53:36.083Z,16.25
2022-12-06T05:56:05.113Z,15.57
2022-12-06T05:58:32.238Z,14.13
2022-12-06T06:00:59.370Z,17.15
2022-12-06T06:03:26.474Z,19.08
2022-12-06T06:05:54.781Z,20.73
2022-12-06T06:08:21.930Z,17.73
2022-12-06T06:10:49.015Z,18.73
2022-12-06T06:13:16.037Z,16.33
2022-12-06T06:15:43.225Z,15.15
2022-12-06T06:18:10.316Z,15.25
2022-12-06T06:20:37.102Z,15.05
2022-12-06T06:23:04.402Z,15.15
2022-12-06T06:25:31.377Z,12.93
2022-12-06T06:27:58.502Z,12.48
2022-12-06T06:30:25.646Z,14.88
2022-12-06T06:32:52.749Z,13.60
2022-12-06T06:35:20.015Z,12.70
2022-12-06T06:37:48.123Z,14.38
2022-12-06T06:40:15.129Z,15.48
2022-12-06T06:42:42.181Z,17.02
2022-12-06T06:45:09.385Z,14.48
2022-12-06T06:47:36.510Z,15.10
2022-12-06T06:50:03.726Z,15.52
2022-12-06T06:52:30.894Z,14.10
2022-12-06T06:54:57.960Z,12.68
2022-12-06T06:57:25.402Z,13.50
2022-12-06T06:59:52.478Z,18.02
2022-12-06T07:02:20.045Z,14.77
2022-12-06T07:04:47.155Z,16.02
2022-12-06T07:07:19.430Z,15.80
2022-12-06T07:09:48.262Z,15.05
2022-12-06T07:12:15.426Z,15.63
2022-12-06T07:14:42.535Z,16.52
2022-12-06T07:17:09.678Z,16.05
2022-12-06T07:19:36.800Z,18.00
2022-12-06T07:22:03.917Z,18.90
2022-12-06T07:24:30.959Z,18.55
2022-12-06T07:26:58.058Z,14.57
2022-12-06T07:29:25.205Z,14.73
2022-12-06T07:31:52.283Z,15.20
2022-12-06T07:34:19.350Z,18.77
2022-12-06T07:36:46.400Z,17.23
2022-12-06T07:39:15.180Z,19.10
2022-12-06T07:42:02.333Z,16.33
2022-12-06T07:44:29.257Z,19.95
2022-12-06T07:46:56.901Z,19.02
2022-12-06T07:49:24.146Z,15.90
2022-12-06T07:51:51.262Z,15.07
2022-12-06T07:54:18.366Z,15.30
2022-12-06T07:56:45.826Z,17.17
2022-12-06T07:59:13.328Z,15.30
2022-12-06T08:01:40.673Z,18.35
2022-12-06T08:04:08.061Z,18.67
2022-12-06T08:06:35.693Z,19.60
2022-12-06T08:09:02.750Z,18.13
2022-12-06T08:11:29.867Z,17.90
2022-12-06T08:13:56.936Z,16.45
2022-12-06T08:16:24.314Z,19.48
2022-12-06T08:18:52.550Z,18.58
2022-12-06T08:21:19.751Z,19.15
2022-12-06T08:23:46.804Z,19.33
2022-12-06T08:26:14.906Z,19.20
2022-12-06T08:28:43.256Z,19.98
2022-12-06T08:31:14.690Z,17.00
2022-12-06T08:33:42.206Z,15.20
2022-12-06T08:36:10.298Z,14.68
2022-12-06T08:38:37.821Z,14.10
2022-12-06T08:41:05.454Z,17.38
2022-12-06T08:43:32.627Z,16.23
2022-12-06T08:45:59.774Z,15.27
2022-12-06T08:48:27.683Z,13.30
2022-12-06T08:50:54.830Z,15.35
2022-12-06T08:53:21.860Z,16.00
2022-12-06T08:56:01.885Z,14.83
2022-12-06T08:58:29.659Z,15.73
2022-12-06T09:00:56.738Z,15.15
2022-12-06T09:03:23.773Z,14.13
2022-12-06T09:05:50.819Z,14.65
2022-12-06T09:08:17.918Z,14.02
2022-12-06T09:10:45.011Z,13.02
2022-12-06T09:13:12.049Z,12.13
2022-12-06T09:15:39.411Z,13.80
2022-12-06T09:18:06.539Z,13.70
2022-12-06T09:20:33.632Z,15.10
2022-12-06T09:23:00.783Z,14.95
2022-12-06T09:25:27.831Z,14.68
2022-12-06T09:27:54.942Z,15.35
2022-12-06T09:30:21.756Z,12.97
2022-12-06T09:32:48.828Z,13.85
2022-12-06T09:35:18.682Z,12.95
2022-12-06T09:37:48.341Z,11.02
2022-12-06T09:40:20.831Z,11.60
2022-12-06T09:42:54.667Z,12.52
2022-12-06T09:45:29.956Z,10.80
2022-12-06T09:48:06.546Z,11.98
2022-12-06T09:50:34.656Z,9.95
2022-12-06T09:53:12.562Z,11.60
2022-12-06T09:55:40.884Z,9.93
2022-12-06T09:58:11.237Z,9.27
2022-12-06T10:00:41.810Z,8.93
2022-12-06T10:03:18.636Z,9.80
2022-12-06T10:06:02.600Z,9.40
2022-12-06T10:08:29.747Z,9.55
2022-12-06T10:11:01.612Z,10.18
2022-12-06T10:13:48.211Z,9.68
2022-12-06T10:16:16.332Z,9.45
2022-12-06T10:18:58.435Z,8.63
2022-12-06T10:21:35.665Z,10.13
2022-12-06T10:24:10.664Z,8.95
2022-12-06T10:27:03.523Z,9.43
2022-12-06T10:29:40.422Z,9.15
2022-12-06T10:32:16.998Z,9.93
2022-12-06T10:34:50.715Z,10.05
2022-12-06T10:37:27.159Z,10.20
2022-12-06T10:39:56.860Z,9.10
2022-12-06T10:42:31.842Z,8.02
2022-12-06T10:45:24.999Z,8.13
2022-12-06T10:47:54.804Z,8.48
2022-12-06T10:50:24.353Z,9.83
2022-12-06T10:53:00.257Z,9.85
2022-12-06T10:55:32.005Z,10.18
2022-12-06T10:58:19.021Z,7.38
2022-12-06T11:00:56.741Z,5.57
2022-12-06T11:03:27.990Z,5.28
2022-12-06T11:05:57.358Z,5.95
2022-12-06T11:08:28.033Z,4.68
2022-12-06T11:10:55.921Z,4.63
2022-12-06T11:13:26.814Z,4.55
2022-12-06T11:15:55.961Z,5.20
2022-12-06T11:18:23.137Z,3.92
2022-12-06T11:20:56.792Z,5.30
2022-12-06T11:23:31.317Z,4.38
2022-12-06T11:26:20.825Z,4.70
2022-12-06T11:28:55.329Z,4.47
2022-12-06T11:31:23.433Z,5.35
2022-12-06T11:33:50.580Z,4.10
2022-12-06T11:36:17.788Z,4.38
2022-12-06T11:38:45.324Z,4.07
2022-12-06T11:41:14.570Z,3.95
2022-12-06T11:43:41.870Z,3.63
2022-12-06T11:46:11.886Z,3.63
2022-12-06T11:48:38.853Z,4.60
2022-12-06T11:51:08.681Z,5.03
2022-12-06T11:53:49.051Z,3.83
2022-12-06T11:56:21.253Z,5.20
2022-12-06T11:59:08.343Z,3.90
2022-12-06T12:01:41.564Z,5.40
2022-12-06T12:04:30.237Z,4.05
2022-12-06T12:06:59.430Z,4.78
2022-12-06T12:09:28.472Z,4.55
2022-12-06T12:12:01.640Z,5.15
2022-12-06T12:14:33.106Z,5.40
2022-12-06T12:17:02.048Z,6.57
2022-12-06T12:19:29.189Z,5.63
2022-12-06T12:21:57.405Z,5.07
2022-12-06T12:25:17.514Z,5.32
2022-12-06T12:27:35.156Z,6.72
2022-12-06T12:30:17.976Z,7.53
2022-12-06T12:32:45.992Z,7.80
2022-12-06T12:35:28.581Z,6.38
2022-12-06T12:37:57.997Z,6.33
2022-12-06T12:40:44.991Z,7.20
2022-12-06T12:43:12.067Z,6.50
2022-12-06T12:45:40.673Z,6.70
2022-12-06T12:48:24.416Z,7.18
2022-12-06T12:50:59.824Z,6.40
2022-12-06T12:53:45.660Z,8.18
2022-12-06T12:56:13.022Z,7.30
2022-12-06T12:58:40.209Z,8.70
2022-12-06T13:01:27.386Z,8.00
2022-12-06T13:03:57.275Z,8.35
2022-12-06T13:06:27.572Z,7.43
2022-12-06T13:08:57.268Z,6.83
2022-12-06T13:11:24.393Z,7.50
2022-12-06T13:13:53.274Z,6.70
2022-12-06T13:16:24.481Z,7.13
2022-12-06T13:18:53.399Z,7.32
2022-12-06T13:21:23.208Z,5.67
2022-12-06T13:23:52.796Z,7.03
2022-12-06T13:26:25.722Z,7.15
2022-12-06T13:28:55.603Z,6.75
2022-12-06T13:31:24.563Z,6.60
2022-12-06T13:33:53.720Z,5.80
2022-12-06T13:36:21.516Z,6.70
2022-12-06T13:38:48.600Z,5.80
2022-12-06T13:41:36.660Z,8.10
2022-12-06T13:44:03.736Z,8.02
2022-12-06T13:46:31.477Z,5.93
2022-12-06T13:49:00.465Z,7.82
2022-12-06T13:51:35.203Z,4.55
2022-12-06T13:54:05.720Z,4.63
2022-12-06T13:56:33.831Z,6.90
2022-12-06T13:59:03.267Z,4.50
2022-12-06T14:01:48.718Z,5.53
2022-12-06T14:07:00.045Z,5.45
2022-12-06T14:09:28.781Z,5.82
2022-12-06T14:12:00.612Z,5.60
2022-12-06T14:14:27.803Z,6.13
2022-12-06T14:16:56.757Z,5.97
2022-12-06T14:19:31.676Z,7.00
2022-12-06T14:21:59.939Z,18.77
2022-12-06T14:24:27.056Z,11.75
2022-12-06T14:26:54.095Z,6.97
2022-12-06T14:29:23.340Z,7.65
2022-12-06T14:31:50.949Z,7.10
2022-12-06T14:34:26.131Z,6.27
2022-12-06T14:36:53.392Z,7.88
2022-12-06T14:39:22.961Z,6.80
2022-12-06T14:42:12.187Z,6.10
2022-12-06T14:44:39.758Z,7.28
2022-12-06T14:47:07.752Z,6.43
2022-12-06T14:49:55.631Z,7.30
2022-12-06T14:52:31.271Z,8.00
2022-12-06T14:55:09.219Z,8.27
2022-12-06T14:57:39.563Z,10.20
2022-12-06T15:00:16.088Z,8.90
2022-12-06T15:03:05.339Z,11.02
2022-12-06T15:05:41.427Z,9.70
2022-12-06T15:08:28.468Z,10.00
2022-12-06T15:10:55.563Z,10.07
2022-12-06T15:13:23.068Z,9.13
2022-12-06T15:16:00.368Z,9.77
2022-12-06T15:18:28.526Z,10.10
2022-12-06T15:20:55.870Z,9.70
2022-12-06T15:23:40.723Z,10.00
2022-12-06T15:26:10.719Z,9.75
2022-12-06T15:28:37.555Z,9.65
2022-12-06T15:31:05.614Z,11.82
2022-12-06T15:33:32.778Z,9.57
2022-12-06T15:35:59.882Z,9.02
2022-12-06T15:38:27.095Z,9.85
2022-12-06T15:40:55.772Z,9.25
2022-12-06T15:43:26.187Z,9.87
2022-12-06T15:45:54.163Z,9.32
2022-12-06T15:48:21.312Z,9.15
2022-12-06T15:50:49.043Z,9.32
2022-12-06T15:53:17.353Z,10.13
2022-12-06T15:55:44.107Z,9.82
2022-12-06T15:58:11.245Z,10.45
2022-12-06T16:00:38.315Z,8.40
2022-12-06T16:03:05.527Z,9.63
2022-12-06T16:05:32.487Z,9.50
2022-12-06T16:07:59.626Z,8.75
2022-12-06T16:10:42.840Z,10.90
2022-12-06T16:13:21.294Z,9.55
2022-12-06T16:15:48.459Z,9.40
2022-12-06T16:18:15.125Z,9.25
2022-12-06T16:20:42.446Z,10.48
2022-12-06T16:23:56.618Z,9.18
2022-12-06T16:26:19.105Z,9.68
2022-12-06T16:28:45.866Z,10.15
2022-12-06T16:31:14.633Z,10.43
2022-12-06T16:33:41.793Z,10.90
2022-12-06T16:36:13.262Z,10.25
2022-12-06T16:38:40.312Z,9.77
2022-12-06T16:41:09.118Z,9.35
2022-12-06T16:43:36.258Z,10.25
2022-12-06T16:46:26.298Z,11.23
2022-12-06T16:48:55.703Z,8.85
2022-12-06T16:51:23.898Z,9.80
2022-12-06T16:53:51.001Z,9.93
2022-12-06T16:56:18.119Z,9.90
2022-12-06T16:58:45.242Z,9.70
2022-12-06T17:01:28.001Z,9.97
2022-12-06T17:03:57.077Z,9.02
2022-12-06T17:06:24.627Z,9.48
2022-12-06T17:08:52.341Z,10.37
2022-12-06T17:11:49.601Z,9.35
2022-12-06T17:14:17.005Z,9.88
2022-12-06T17:16:44.873Z,9.70
2022-12-06T17:19:18.261Z,9.00
2022-12-06T17:21:45.820Z,9.70
2022-12-06T17:24:13.170Z,9.45
2022-12-06T17:26:40.303Z,8.77
2022-12-06T17:29:07.631Z,9.57
2022-12-06T17:31:35.336Z,9.02
2022-12-06T17:34:02.522Z,11.10
2022-12-06T17:36:30.426Z,10.63
2022-12-06T17:38:57.970Z,9.45
2022-12-06T17:41:51.609Z,9.90
2022-12-06T17:44:19.229Z,9.90
2022-12-06T17:46:46.326Z,8.57
2022-12-06T17:49:14.889Z,9.20
2022-12-06T17:51:42.181Z,10.57
2022-12-06T17:54:09.732Z,10.25
2022-12-06T17:56:38.510Z,12.65
2022-12-06T17:59:07.046Z,9.30
2022-12-06T18:01:58.084Z,10.45
2022-12-06T18:04:21.510Z,10.50
2022-12-06T18:06:48.765Z,8.82
2022-12-06T18:09:16.042Z,9.18
2022-12-06T18:11:43.528Z,9.63
2022-12-06T18:14:12.525Z,9.25
2022-12-06T18:16:40.413Z,9.75
2022-12-06T18:19:08.975Z,8.95
2022-12-06T18:21:36.541Z,8.95
2022-12-06T18:24:21.901Z,10.20
2022-12-06T18:26:50.417Z,8.70
2022-12-06T18:29:19.691Z,8.80
2022-12-06T18:31:47.226Z,8.90
2022-12-06T18:34:14.450Z,9.05
2022-12-06T18:36:41.609Z,10.55
2022-12-06T18:39:14.516Z,11.70
2022-12-06T18:41:42.827Z,11.85
2022-12-06T18:44:10.235Z,11.35
2022-12-06T18:46:38.682Z,11.18
2022-12-06T18:49:06.124Z,9.80
2022-12-06T18:51:34.165Z,9.95
2022-12-06T18:54:02.400Z,9.10
2022-12-06T18:56:30.701Z,9.25
2022-12-06T18:58:59.065Z,9.10
2022-12-06T19:01:27.852Z,9.23
2022-12-06T19:03:55.648Z,9.50
2022-12-06T19:06:24.188Z,8.55
2022-12-06T19:08:52.912Z,9.10
2022-12-06T19:11:20.393Z,9.25
2022-12-06T19:13:51.851Z,8.50
2022-12-06T19:16:21.240Z,9.15
2022-12-06T19:18:48.513Z,10.15
2022-12-06T19:21:15.691Z,9.70
2022-12-06T19:23:42.828Z,11.98
2022-12-06T19:26:09.927Z,8.50
2022-12-06T19:28:38.597Z,8.30
2022-12-06T19:31:06.347Z,7.72
2022-12-06T19:33:35.567Z,8.50
2022-12-06T19:36:04.549Z,8.30
2022-12-06T19:38:31.657Z,7.50
2022-12-06T19:40:58.746Z,7.72
2022-12-06T19:43:45.743Z,8.05
2022-12-06T19:46:14.255Z,8.13
2022-12-06T19:48:41.476Z,7.60
2022-12-06T19:51:08.729Z,7.93
2022-12-06T19:53:36.449Z,7.18
2022-12-06T19:56:04.152Z,8.57
2022-12-06T19:58:31.897Z,6.80
2022-12-06T20:00:59.253Z,7.65
2022-12-06T20:03:26.598Z,7.87
2022-12-06T20:06:02.597Z,8.75
2022-12-06T20:08:29.876Z,9.37
2022-12-06T20:10:56.942Z,8.63
2022-12-06T20:13:24.689Z,7.55
2022-12-06T20:15:51.829Z,11.13
2022-12-06T20:18:19.014Z,8.93
2022-12-06T20:20:48.169Z,8.32
2022-12-06T20:23:15.225Z,7.85
2022-12-06T20:25:42.613Z,7.50
2022-12-06T20:28:13.462Z,8.38
2022-12-06T20:30:40.418Z,7.80
2022-12-06T20:33:07.549Z,8.02
2022-12-06T20:35:37.329Z,7.57
2022-12-06T20:38:04.373Z,8.33
2022-12-06T20:40:31.866Z,8.57
2022-12-06T20:42:58.706Z,8.73
2022-12-06T20:45:25.446Z,7.65
2022-12-06T20:47:53.180Z,8.90
2022-12-06T20:50:20.689Z,7.90
2022-12-06T20:52:47.781Z,7.95
2022-12-06T20:55:15.149Z,7.93
2022-12-06T20:57:42.261Z,6.97
2022-12-06T21:00:11.664Z,6.85
2022-12-06T21:02:39.028Z,7.80
2022-12-06T21:05:06.434Z,7.85
2022-12-06T21:07:33.256Z,7.07
2022-12-06T21:10:00.755Z,7.18
2022-12-06T21:12:28.251Z,7.05
2022-12-06T21:14:55.336Z,7.05
2022-12-06T21:17:22.377Z,8.13
2022-12-06T21:19:49.429Z,7.85
2022-12-06T21:22:16.485Z,8.35
2022-12-06T21:24:43.628Z,8.43
2022-12-06T21:27:10.665Z,8.02
2022-12-06T21:29:42.379Z,8.25
2022-12-06T21:32:09.525Z,8.77
2022-12-06T21:34:42.884Z,8.30
2022-12-06T21:37:13.200Z,8.20
2022-12-06T21:39:40.695Z,8.18
2022-12-06T21:42:07.825Z,9.23
2022-12-06T21:44:34.922Z,8.70
2022-12-06T21:47:01.867Z,7.80
2022-12-06T21:49:29.279Z,7.93
2022-12-06T21:52:03.128Z,8.82
2022-12-06T21:54:34.629Z,9.43
2022-12-06T21:57:01.706Z,9.27
2022-12-06T21:59:28.805Z,8.52
2022-12-06T22:01:55.898Z,7.72
2022-12-06T22:04:23.036Z,7.55
2022-12-06T22:06:50.080Z,7.60
2022-12-06T22:09:17.150Z,7.00
2022-12-06T22:11:44.443Z,7.57
2022-12-06T22:14:11.887Z,10.23
2022-12-06T22:16:39.045Z,7.07
2022-12-06T22:19:06.159Z,7.18
2022-12-06T22:21:33.600Z,7.38
2022-12-06T22:24:00.940Z,7.10
2022-12-06T22:26:29.212Z,6.65
2022-12-06T22:28:56.690Z,7.00
2022-12-06T22:31:25.597Z,8.32
2022-12-06T22:33:53.036Z,8.40
2022-12-06T22:36:21.318Z,7.13
2022-12-06T22:38:49.633Z,7.80
2022-12-06T22:41:16.943Z,8.17
2022-12-06T22:43:44.026Z,6.82
2022-12-06T22:46:12.831Z,7.03
2022-12-06T22:48:40.664Z,7.28
2022-12-06T22:51:09.577Z,7.85
2022-12-06T22:53:36.735Z,7.40
2022-12-06T22:56:04.079Z,7.35
2022-12-06T22:58:31.229Z,8.38
2022-12-06T23:00:57.989Z,7.35
2022-12-06T23:03:25.224Z,7.35
2022-12-06T23:06:00.645Z,8.32
2022-12-06T23:08:27.933Z,7.05
2022-12-06T23:11:03.385Z,8.30
2022-12-06T23:13:30.697Z,6.97
2022-12-06T23:15:59.786Z,7.05
2022-12-06T23:18:27.546Z,6.60
2022-12-06T23:21:13.011Z,6.88
2022-12-06T23:23:42.978Z,7.17
2022-12-06T23:26:11.598Z,7.10
2022-12-06T23:28:38.719Z,7.22
2022-12-06T23:31:07.382Z,6.63
2022-12-06T23:33:35.114Z,8.20
2022-12-06T23:36:11.005Z,7.05
2022-12-06T23:38:38.174Z,7.35
2022-12-06T23:41:07.759Z,7.32
2022-12-06T23:43:35.070Z,7.57
2022-12-06T23:46:07.411Z,7.30
2022-12-06T23:48:35.517Z,7.45
2022-12-06T23:51:03.787Z,8.05
2022-12-06T23:53:31.354Z,8.43
2022-12-06T23:56:00.098Z,7.90
2022-12-06T23:58:28.378Z,7.65
